Wells Aircraft, Inc. Hutchinson Municipal
(888) 496-5545
800 Airport Road
Hutchinson, KS 67501
(change)
Av Fuel Aviation Fuel Jet A: $3.85
100LL: $4.47
Prices current
Jun 19, 2017

Location

Wells Aircraft is located on the south end of the Hutchinson Municipal Airport (KHUT), in Hutchinson, Kansas.

Wells Aircraft, Inc.
800 Airport Road
Hutchinson, KS 67501
Map
Wells Location at KHUT

Quick Links


AirNav Information
(KHUT)

Hutchinson Weather

Hutchinson (KHUT)
Airport Diagram

Additional Resources

They say, "if you don't like the weather in Kansas, wait five minutes and it'll change." Be prepared with these aviation resources.

KHUT 241452Z 09005KT 10SM CLR 24/09 A3027 RMK AO2 SLP233 T02390094 51026                KHUT 241452Z 09005KT 10SM CLR 24/09 A3027 RMK AO2 SLP233 T02390094 51026                KHUT 241452Z 09005KT 10SM CLR 24/09 A3027 RMK AO2 SLP233 T02390094 51026                KHUT 241452Z 09005KT 10SM CLR 24/09 A3027 RMK AO2 SLP233 T02390094 51026                KHUT 241452Z 09005KT 10SM CLR 24/09 A3027 RMK AO2 SLP233 T02390094 51026                KHUT 241452Z 09005KT 10SM CLR 24/09 A3027 RMK AO2 SLP233 T02390094 51026                
 
 
Cirrus Aircraft